Time;durP1;ratioP1;P1;durP2;ratioP2;P2;SDS_P1;SDS_P2;PMS_P1;PMS_P2;Temp;Humidity;BMP_temperature;BMP_pressure;BME280_temperature;BME280_humidity;BME280_pressure;Samples;Min_cycle;Max_cycle;Signal;HPM_P1;HPM_P2
2024/01/12 00:02:20;;;;;;;31.37;20.83;;;;;;;;;;5050360;28;20453;-63
2024/01/12 00:04:45;;;;;;;34.23;20.60;;;;;;;;;;5051395;28;20589;-63
2024/01/12 00:07:10;;;;;;;30.55;19.85;;;;;;;;;;5049850;28;20458;-63
2024/01/12 00:09:36;;;;;;;33.17;20.27;;;;;;;;;;5051475;28;20397;-63
2024/01/12 00:12:01;;;;;;;30.80;19.70;;;;;;;;;;5050857;28;20405;-64
2024/01/12 00:14:26;;;;;;;31.73;19.10;;;;;;;;;;5050534;28;20881;-63
2024/01/12 00:16:51;;;;;;;29.98;19.58;;;;;;;;;;5050936;28;20428;-63
2024/01/12 00:19:19;;;;;;;31.43;20.20;;;;;;;;;;5049475;28;20433;-63
2024/01/12 00:21:44;;;;;;;29.83;19.90;;;;;;;;;;5050298;28;20406;-63
2024/01/12 00:24:09;;;;;;;33.43;20.27;;;;;;;;;;5050570;28;20397;-63
2024/01/12 00:26:34;;;;;;;32.60;19.90;;;;;;;;;;5050507;28;20413;-63
2024/01/12 00:29:00;;;;;;;33.27;20.03;;;;;;;;;;5050845;28;20912;-63
2024/01/12 00:31:25;;;;;;;32.17;19.47;;;;;;;;;;5050462;28;20443;-63
2024/01/12 00:33:50;;;;;;;29.97;18.63;;;;;;;;;;5050115;28;20402;-63
2024/01/12 00:36:16;;;;;;;33.23;19.07;;;;;;;;;;5050465;28;20436;-63
2024/01/12 00:38:41;;;;;;;33.67;19.97;;;;;;;;;;5050846;28;20896;-63
2024/01/12 00:41:06;;;;;;;31.33;19.17;;;;;;;;;;5049694;28;20535;-63
2024/01/12 00:43:32;;;;;;;31.00;18.90;;;;;;;;;;5050862;28;20447;-63
2024/01/12 00:45:57;;;;;;;31.45;20.02;;;;;;;;;;5050795;28;20429;-63
2024/01/12 00:48:22;;;;;;;32.63;19.87;;;;;;;;;;5049158;28;20390;-63
2024/01/12 00:50:47;;;;;;;34.33;20.27;;;;;;;;;;5050741;28;20397;-63
2024/01/12 00:53:13;;;;;;;30.43;19.20;;;;;;;;;;5050308;28;20401;-63
2024/01/12 00:55:38;;;;;;;32.80;19.93;;;;;;;;;;5050089;28;20398;-63
2024/01/12 00:58:03;;;;;;;30.17;18.93;;;;;;;;;;5050266;28;20397;-64
2024/01/12 01:00:31;;;;;;;33.60;19.43;;;;;;;;;;5050469;28;20451;-63
2024/01/12 01:02:56;;;;;;;31.40;19.02;;;;;;;;;;5049576;28;20404;-63
2024/01/12 01:05:21;;;;;;;27.40;17.95;;;;;;;;;;5050111;28;20717;-63
2024/01/12 01:07:47;;;;;;;28.63;18.00;;;;;;;;;;5050626;28;20433;-63
2024/01/12 01:10:13;;;;;;;29.50;18.37;;;;;;;;;;5049386;28;20464;-64
2024/01/12 01:12:38;;;;;;;31.58;18.45;;;;;;;;;;5033299;28;20456;-63
2024/01/12 01:15:06;;;;;;;29.33;17.35;;;;;;;;;;5049617;28;20385;-63
2024/01/12 01:17:32;;;;;;;27.48;16.85;;;;;;;;;;5049759;28;20473;-63
2024/01/12 01:19:58;;;;;;;28.00;16.63;;;;;;;;;;5050180;28;20488;-63
2024/01/12 01:22:23;;;;;;;28.27;15.52;;;;;;;;;;5032136;28;20427;-63
2024/01/12 01:24:49;;;;;;;29.38;16.75;;;;;;;;;;5049521;28;20394;-63
2024/01/12 01:27:14;;;;;;;24.57;14.73;;;;;;;;;;5050098;28;20464;-63
2024/01/12 01:29:39;;;;;;;24.03;14.27;;;;;;;;;;5052136;28;20394;-63
2024/01/12 01:32:04;;;;;;;25.43;14.73;;;;;;;;;;5053217;28;20401;-63
2024/01/12 01:34:30;;;;;;;28.38;14.25;;;;;;;;;;5054157;28;20918;-63
2024/01/12 01:37:01;;;;;;;25.77;14.23;;;;;;;;;;5053421;28;20412;-63
2024/01/12 01:39:27;;;;;;;24.80;14.53;;;;;;;;;;5053780;28;20498;-63
2024/01/12 01:41:52;;;;;;;25.15;13.60;;;;;;;;;;5054110;28;20484;-63
2024/01/12 01:44:17;;;;;;;26.30;15.10;;;;;;;;;;5034932;28;20401;-63
2024/01/12 01:46:42;;;;;;;27.50;14.50;;;;;;;;;;5054141;28;20406;-63
2024/01/12 01:49:08;;;;;;;24.37;13.90;;;;;;;;;;5053152;28;20425;-63
2024/01/12 01:51:33;;;;;;;23.67;12.93;;;;;;;;;;5053202;28;20901;-63
2024/01/12 01:53:58;;;;;;;23.10;13.63;;;;;;;;;;5054178;28;20409;-63
2024/01/12 01:56:23;;;;;;;26.23;14.33;;;;;;;;;;5053395;28;20908;-64
2024/01/12 01:58:49;;;;;;;23.23;12.00;;;;;;;;;;5035033;28;20401;-63
2024/01/12 02:01:14;;;;;;;22.30;11.80;;;;;;;;;;5052957;28;20417;-63
2024/01/12 02:03:39;;;;;;;23.38;11.95;;;;;;;;;;5053586;28;20796;-63
2024/01/12 02:06:05;;;;;;;23.63;11.57;;;;;;;;;;5034663;28;20727;-64
2024/01/12 02:08:30;;;;;;;24.80;11.73;;;;;;;;;;5053491;28;20773;-63
2024/01/12 02:10:55;;;;;;;24.83;11.37;;;;;;;;;;5035721;28;20393;-63
2024/01/12 02:13:21;;;;;;;22.80;11.80;;;;;;;;;;5052432;28;20721;-63
2024/01/12 02:15:46;;;;;;;23.58;11.82;;;;;;;;;;5053400;28;20523;-63
2024/01/12 02:18:12;;;;;;;22.87;11.17;;;;;;;;;;5052458;28;20513;-63
2024/01/12 02:20:38;;;;;;;19.80;10.80;;;;;;;;;;5034511;28;20406;-63
2024/01/12 02:23:03;;;;;;;22.02;11.30;;;;;;;;;;5052802;28;20429;-63
2024/01/12 02:25:28;;;;;;;22.17;10.60;;;;;;;;;;5053211;28;20490;-63
2024/01/12 02:27:54;;;;;;;21.90;10.77;;;;;;;;;;5052515;28;20477;-63
2024/01/12 02:30:19;;;;;;;21.23;10.90;;;;;;;;;;5052486;28;20393;-63
2024/01/12 02:32:44;;;;;;;20.60;10.60;;;;;;;;;;5053217;28;20390;-63
2024/01/12 02:35:09;;;;;;;21.67;10.50;;;;;;;;;;5051779;28;20448;-63
2024/01/12 02:37:35;;;;;;;21.75;10.73;;;;;;;;;;5053141;28;20425;-63
2024/01/12 02:40:00;;;;;;;22.00;10.23;;;;;;;;;;5053067;28;20409;-63
2024/01/12 02:42:25;;;;;;;20.97;10.17;;;;;;;;;;5050912;28;20459;-63
2024/01/12 02:44:51;;;;;;;21.70;9.67;;;;;;;;;;5034995;28;20397;-63
2024/01/12 02:47:16;;;;;;;22.20;10.57;;;;;;;;;;5051504;28;20492;-63
2024/01/12 02:49:43;;;;;;;20.83;9.30;;;;;;;;;;5052776;28;20405;-63
2024/01/12 02:52:08;;;;;;;28.50;11.07;;;;;;;;;;5052053;28;20405;-63
2024/01/12 02:54:33;;;;;;;20.60;10.40;;;;;;;;;;5034170;28;20864;-63
2024/01/12 02:56:58;;;;;;;19.53;9.07;;;;;;;;;;5052727;28;20447;-63
2024/01/12 02:59:24;;;;;;;23.27;10.73;;;;;;;;;;5052232;28;20406;-63
2024/01/12 03:01:49;;;;;;;19.97;9.77;;;;;;;;;;5051563;28;20806;-63
2024/01/12 03:04:14;;;;;;;21.90;10.50;;;;;;;;;;5051867;28;20392;-62
2024/01/12 03:06:40;;;;;;;23.00;10.77;;;;;;;;;;5039581;28;20791;-63
2024/01/12 03:09:05;;;;;;;19.60;9.53;;;;;;;;;;5021559;28;20387;-63
2024/01/12 03:11:30;;;;;;;21.00;10.07;;;;;;;;;;5019413;28;20406;-63
2024/01/12 03:13:55;;;;;;;22.67;9.43;;;;;;;;;;5014697;28;20755;-63
2024/01/12 03:16:21;;;;;;;22.57;9.80;;;;;;;;;;5030134;28;20402;-63
2024/01/12 03:18:47;;;;;;;21.50;9.70;;;;;;;;;;5016066;28;20422;-63
2024/01/12 03:21:12;;;;;;;20.10;8.95;;;;;;;;;;5025682;28;20912;-63
2024/01/12 03:23:37;;;;;;;23.57;9.43;;;;;;;;;;5035374;28;20428;-63
2024/01/12 03:26:03;;;;;;;21.33;9.03;;;;;;;;;;5041503;28;20443;-63
2024/01/12 03:28:28;;;;;;;24.90;9.95;;;;;;;;;;5041612;28;20398;-63
2024/01/12 03:30:53;;;;;;;19.77;9.23;;;;;;;;;;5041104;28;20456;-63
2024/01/12 03:33:19;;;;;;;19.60;8.73;;;;;;;;;;5040834;28;20499;-63
2024/01/12 03:35:44;;;;;;;22.30;9.30;;;;;;;;;;5034072;28;21155;-63
2024/01/12 03:38:12;;;;;;;24.07;9.17;;;;;;;;;;5014206;28;20417;-63
2024/01/12 03:40:37;;;;;;;19.15;9.20;;;;;;;;;;5027065;28;21004;-63
2024/01/12 03:43:03;;;;;;;21.37;10.10;;;;;;;;;;5021037;28;20426;-63
2024/01/12 03:45:28;;;;;;;21.17;9.50;;;;;;;;;;5021202;28;20391;-63
2024/01/12 03:47:53;;;;;;;24.13;9.80;;;;;;;;;;5021672;28;20391;-63
2024/01/12 03:50:19;;;;;;;23.00;9.57;;;;;;;;;;5021741;28;20453;-63
2024/01/12 03:52:44;;;;;;;22.93;9.60;;;;;;;;;;5020831;28;20395;-63
2024/01/12 03:55:09;;;;;;;20.58;8.88;;;;;;;;;;5021559;28;20403;-63
2024/01/12 03:57:34;;;;;;;19.73;8.70;;;;;;;;;;5015817;28;20394;-63
2024/01/12 04:00:00;;;;;;;21.60;8.57;;;;;;;;;;5013917;28;20502;-63
2024/01/12 04:02:25;;;;;;;20.10;8.20;;;;;;;;;;5013343;28;20391;-63
2024/01/12 04:04:50;;;;;;;21.73;8.60;;;;;;;;;;5037199;28;20400;-63
2024/01/12 04:07:16;;;;;;;20.10;8.63;;;;;;;;;;5043401;28;20385;-63
2024/01/12 04:09:41;;;;;;;21.73;8.40;;;;;;;;;;5050263;28;20905;-63
2024/01/12 04:12:06;;;;;;;19.73;8.20;;;;;;;;;;5050227;28;20397;-63
2024/01/12 04:14:32;;;;;;;21.15;7.93;;;;;;;;;;5045863;28;20387;-63
2024/01/12 04:16:57;;;;;;;20.00;7.60;;;;;;;;;;5031434;28;20540;-63
2024/01/12 04:19:22;;;;;;;18.90;7.70;;;;;;;;;;5044677;28;20711;-63
2024/01/12 04:21:49;;;;;;;19.88;7.65;;;;;;;;;;5050217;28;22361;-63
2024/01/12 04:24:15;;;;;;;18.13;7.43;;;;;;;;;;5050400;28;20488;-63
2024/01/12 04:26:40;;;;;;;19.70;7.25;;;;;;;;;;5050605;28;20474;-63
2024/01/12 04:29:05;;;;;;;22.83;8.67;;;;;;;;;;5050217;28;20397;-63
2024/01/12 04:31:31;;;;;;;22.03;8.70;;;;;;;;;;5051078;28;20421;-63
2024/01/12 04:33:56;;;;;;;22.90;8.27;;;;;;;;;;5050294;28;20401;-63
2024/01/12 04:36:27;;;;;;;19.13;6.90;;;;;;;;;;5050539;28;20378;-63
2024/01/12 04:38:52;;;;;;;21.63;7.38;;;;;;;;;;5050826;28;20476;-63
2024/01/12 04:41:18;;;;;;;21.53;7.30;;;;;;;;;;5036802;28;21433;-63
2024/01/12 04:43:43;;;;;;;20.80;7.50;;;;;;;;;;5021081;28;20989;-63
2024/01/12 04:46:08;;;;;;;20.50;7.05;;;;;;;;;;5020869;28;20391;-63
2024/01/12 04:48:33;;;;;;;18.03;6.90;;;;;;;;;;5002424;28;20407;-63
2024/01/12 04:50:59;;;;;;;19.23;7.20;;;;;;;;;;5021262;28;20395;-63
2024/01/12 04:53:25;;;;;;;17.77;6.63;;;;;;;;;;5034484;28;20402;-63
2024/01/12 04:55:50;;;;;;;23.63;7.37;;;;;;;;;;5032267;28;20405;-63
2024/01/12 04:58:16;;;;;;;17.87;6.67;;;;;;;;;;5031798;28;20402;-63
2024/01/12 05:00:41;;;;;;;19.73;6.47;;;;;;;;;;5033883;28;20832;-63
2024/01/12 05:03:07;;;;;;;22.70;6.78;;;;;;;;;;5020106;28;20764;-63
2024/01/12 05:05:32;;;;;;;15.70;6.07;;;;;;;;;;5024220;28;20482;-63
2024/01/12 05:07:57;;;;;;;16.77;6.40;;;;;;;;;;5024349;28;20411;-63
2024/01/12 05:10:22;;;;;;;19.40;6.80;;;;;;;;;;5030400;28;20447;-63
2024/01/12 05:12:48;;;;;;;17.97;6.63;;;;;;;;;;5044292;28;20397;-63
2024/01/12 05:15:13;;;;;;;18.23;6.20;;;;;;;;;;5031395;28;20403;-63
2024/01/12 05:17:38;;;;;;;19.67;6.47;;;;;;;;;;5017757;28;20880;-63
2024/01/12 05:20:06;;;;;;;19.33;6.67;;;;;;;;;;5015865;28;21270;-63
2024/01/12 05:22:32;;;;;;;19.60;6.70;;;;;;;;;;5036133;28;21314;-63
2024/01/12 05:24:57;;;;;;;17.65;6.28;;;;;;;;;;5044250;28;20412;-63
2024/01/12 05:27:23;;;;;;;22.07;6.70;;;;;;;;;;5043554;28;20797;-63
2024/01/12 05:29:48;;;;;;;21.13;6.77;;;;;;;;;;5043565;28;20405;-63
2024/01/12 05:32:13;;;;;;;20.87;6.47;;;;;;;;;;5043523;28;20492;-63
2024/01/12 05:34:39;;;;;;;18.20;6.20;;;;;;;;;;5044339;28;20400;-63
2024/01/12 05:37:04;;;;;;;16.53;6.03;;;;;;;;;;5042434;28;20544;-63
2024/01/12 05:39:29;;;;;;;19.57;6.67;;;;;;;;;;5037553;28;20516;-63
2024/01/12 05:41:54;;;;;;;19.80;6.13;;;;;;;;;;5040856;28;20389;-63
2024/01/12 05:44:20;;;;;;;18.23;6.40;;;;;;;;;;5051725;28;20946;-63
2024/01/12 05:46:45;;;;;;;14.87;5.33;;;;;;;;;;5054111;28;20405;-63
2024/01/12 05:49:10;;;;;;;15.03;5.73;;;;;;;;;;5053358;28;21017;-63
2024/01/12 05:51:35;;;;;;;15.77;6.00;;;;;;;;;;5053259;28;20397;-63
2024/01/12 05:54:01;;;;;;;18.13;5.50;;;;;;;;;;5044631;28;20473;-63
2024/01/12 05:56:26;;;;;;;17.97;5.60;;;;;;;;;;5016605;28;20404;-63
2024/01/12 05:58:52;;;;;;;18.00;6.10;;;;;;;;;;5022002;28;20900;-63
2024/01/12 06:01:17;;;;;;;15.50;5.87;;;;;;;;;;5057399;28;20424;-63
2024/01/12 06:03:44;;;;;;;16.97;5.80;;;;;;;;;;5029847;28;20395;-63
2024/01/12 06:06:09;;;;;;;17.05;5.78;;;;;;;;;;5042283;28;20496;-63
2024/01/12 06:08:35;;;;;;;17.27;5.60;;;;;;;;;;5043299;28;20496;-63
2024/01/12 06:11:00;;;;;;;18.85;6.30;;;;;;;;;;5043060;28;20409;-63
2024/01/12 06:13:25;;;;;;;15.63;6.40;;;;;;;;;;5020714;28;20404;-63
2024/01/12 06:15:51;;;;;;;19.17;6.00;;;;;;;;;;5018782;28;20909;-63
2024/01/12 06:18:16;;;;;;;16.10;5.50;;;;;;;;;;5014493;28;20910;-63
2024/01/12 06:20:41;;;;;;;17.93;6.90;;;;;;;;;;5019389;28;20399;-63
2024/01/12 06:23:07;;;;;;;17.53;5.70;;;;;;;;;;5023057;28;20928;-63
2024/01/12 06:25:36;;;;;;;15.80;5.57;;;;;;;;;;5022819;28;20395;-63
2024/01/12 06:28:02;;;;;;;18.00;6.60;;;;;;;;;;5057591;28;20401;-63
2024/01/12 06:30:27;;;;;;;15.63;5.90;;;;;;;;;;5042899;28;20393;-63
2024/01/12 06:32:52;;;;;;;12.97;5.30;;;;;;;;;;5042372;28;20463;-63
2024/01/12 06:35:18;;;;;;;16.90;5.53;;;;;;;;;;5040479;28;20389;-63
2024/01/12 06:37:43;;;;;;;14.87;5.33;;;;;;;;;;5035577;28;20991;-63
2024/01/12 06:40:09;;;;;;;16.63;5.60;;;;;;;;;;5033246;28;21030;-63
2024/01/12 06:42:34;;;;;;;16.80;6.10;;;;;;;;;;5035656;28;20424;-63
2024/01/12 06:45:00;;;;;;;14.63;5.15;;;;;;;;;;5026811;28;20406;-63
2024/01/12 06:47:25;;;;;;;15.33;5.50;;;;;;;;;;5021720;28;20441;-63
2024/01/12 06:49:50;;;;;;;15.00;6.03;;;;;;;;;;5022920;28;20411;-63
2024/01/12 06:52:15;;;;;;;16.97;5.10;;;;;;;;;;5022219;28;20430;-63
2024/01/12 06:54:42;;;;;;;13.25;4.82;;;;;;;;;;5022227;28;20503;-63
2024/01/12 06:57:07;;;;;;;15.35;5.32;;;;;;;;;;5041333;28;20408;-63
2024/01/12 06:59:33;;;;;;;14.88;5.30;;;;;;;;;;5035666;28;20393;-63
2024/01/12 07:01:59;;;;;;;12.60;4.60;;;;;;;;;;5020503;28;20411;-63
2024/01/12 07:04:24;;;;;;;13.05;5.07;;;;;;;;;;5014376;28;20611;-62
2024/01/12 07:06:51;;;;;;;13.37;4.57;;;;;;;;;;5023813;28;20498;-62
2024/01/12 07:09:16;;;;;;;12.65;4.75;;;;;;;;;;5038278;28;20394;-62
2024/01/12 07:11:42;;;;;;;12.40;4.47;;;;;;;;;;5022628;28;20411;-61
2024/01/12 07:14:07;;;;;;;12.90;4.40;;;;;;;;;;5020814;28;21424;-61
2024/01/12 07:16:32;;;;;;;10.95;4.40;;;;;;;;;;5022100;28;20458;-62
2024/01/12 07:18:58;;;;;;;15.50;4.63;;;;;;;;;;5022586;28;20766;-63
2024/01/12 07:21:23;;;;;;;16.67;5.70;;;;;;;;;;5037233;28;21145;-62
2024/01/12 07:23:49;;;;;;;14.52;5.15;;;;;;;;;;5033384;28;20425;-62
2024/01/12 07:26:14;;;;;;;13.45;4.97;;;;;;;;;;5033077;28;20432;-62
2024/01/12 07:28:40;;;;;;;14.63;4.77;;;;;;;;;;5036879;28;20885;-62
2024/01/12 07:31:05;;;;;;;14.13;4.90;;;;;;;;;;5041113;28;20413;-62
2024/01/12 07:33:30;;;;;;;14.33;4.93;;;;;;;;;;5041788;28;20917;-62
2024/01/12 07:35:55;;;;;;;14.67;4.70;;;;;;;;;;5040679;28;20447;-64
2024/01/12 07:38:21;;;;;;;11.57;4.17;;;;;;;;;;5027383;28;20795;-63
2024/01/12 07:40:46;;;;;;;11.93;4.37;;;;;;;;;;5021649;28;20890;-64
2024/01/12 07:43:12;;;;;;;13.35;3.90;;;;;;;;;;5036984;28;20547;-63
2024/01/12 07:45:37;;;;;;;12.13;3.73;;;;;;;;;;4996006;28;21064;-63
2024/01/12 07:48:03;;;;;;;14.73;5.73;;;;;;;;;;5013047;28;20402;-64
2024/01/12 07:50:28;;;;;;;13.80;5.57;;;;;;;;;;5014422;28;20545;-64
2024/01/12 07:52:53;;;;;;;13.97;4.70;;;;;;;;;;5028999;28;20851;-64
2024/01/12 07:55:18;;;;;;;16.87;4.53;;;;;;;;;;5050913;28;20409;-64
2024/01/12 07:57:44;;;;;;;13.23;4.47;;;;;;;;;;5050555;28;20389;-64
2024/01/12 08:00:11;;;;;;;12.18;4.35;;;;;;;;;;5051028;28;20828;-64
2024/01/12 08:02:36;;;;;;;12.43;3.80;;;;;;;;;;5051177;28;20473;-64
2024/01/12 08:05:02;;;;;;;12.97;4.00;;;;;;;;;;5050284;28;20584;-64
2024/01/12 08:07:27;;;;;;;11.53;3.93;;;;;;;;;;5051072;28;20404;-64
2024/01/12 08:09:52;;;;;;;13.53;4.40;;;;;;;;;;5051569;28;20398;-64
2024/01/12 08:12:18;;;;;;;13.87;4.90;;;;;;;;;;5049853;28;20429;-64
2024/01/12 08:14:43;;;;;;;12.80;5.17;;;;;;;;;;5044358;28;20396;-64
2024/01/12 08:17:08;;;;;;;14.27;5.43;;;;;;;;;;5030822;28;20765;-64
2024/01/12 08:19:34;;;;;;;15.73;6.50;;;;;;;;;;5046967;28;20405;-65
2024/01/12 08:21:59;;;;;;;15.43;5.80;;;;;;;;;;5050192;28;20424;-64
2024/01/12 08:24:24;;;;;;;15.53;5.60;;;;;;;;;;5050497;28;20365;-63
2024/01/12 08:26:49;;;;;;;15.63;6.73;;;;;;;;;;5050201;28;20397;-62
2024/01/12 08:29:15;;;;;;;15.67;6.57;;;;;;;;;;5050406;28;20492;-62
2024/01/12 08:31:40;;;;;;;13.57;5.40;;;;;;;;;;5050578;28;20405;-62
2024/01/12 08:34:05;;;;;;;15.23;4.63;;;;;;;;;;5049704;28;20409;-63
2024/01/12 08:36:31;;;;;;;14.73;4.90;;;;;;;;;;5051231;28;20401;-62
2024/01/12 08:38:56;;;;;;;10.93;4.40;;;;;;;;;;5049121;28;20460;-62
2024/01/12 08:41:21;;;;;;;14.10;5.10;;;;;;;;;;5050554;28;20408;-63
2024/01/12 08:43:47;;;;;;;11.68;4.60;;;;;;;;;;5050637;28;20412;-62
2024/01/12 08:46:12;;;;;;;13.50;5.13;;;;;;;;;;5049420;28;20397;-62
2024/01/12 08:48:38;;;;;;;13.73;4.63;;;;;;;;;;5050775;28;20783;-62
2024/01/12 08:51:03;;;;;;;13.68;4.68;;;;;;;;;;5050405;28;20397;-63
2024/01/12 08:53:28;;;;;;;16.13;5.50;;;;;;;;;;5049114;28;20839;-62
2024/01/12 08:55:54;;;;;;;12.33;4.60;;;;;;;;;;5050736;28;20389;-63
2024/01/12 08:58:19;;;;;;;15.70;5.10;;;;;;;;;;5049807;28;20463;-62
2024/01/12 09:00:44;;;;;;;13.37;5.90;;;;;;;;;;5049594;28;20405;-62
2024/01/12 09:03:10;;;;;;;18.10;7.10;;;;;;;;;;5049996;28;20401;-62
2024/01/12 09:05:35;;;;;;;23.63;13.33;;;;;;;;;;5050659;28;20393;-62
2024/01/12 09:08:01;;;;;;;21.20;9.87;;;;;;;;;;5049393;28;20396;-63
2024/01/12 09:10:27;;;;;;;20.95;9.38;;;;;;;;;;5032873;28;20464;-62
2024/01/12 09:12:52;;;;;;;16.90;6.57;;;;;;;;;;5050562;28;20485;-62
2024/01/12 09:15:17;;;;;;;16.80;6.50;;;;;;;;;;5049271;28;20456;-62
2024/01/12 09:17:43;;;;;;;18.93;7.60;;;;;;;;;;5050182;28;20405;-62
2024/01/12 09:20:08;;;;;;;13.83;5.70;;;;;;;;;;5049738;28;20424;-63
2024/01/12 09:22:33;;;;;;;15.55;5.57;;;;;;;;;;5049647;28;20952;-62
2024/01/12 09:24:59;;;;;;;16.33;5.83;;;;;;;;;;5050215;28;20389;-62
2024/01/12 09:27:24;;;;;;;18.43;5.60;;;;;;;;;;5049990;28;20848;-63
2024/01/12 09:29:49;;;;;;;14.37;5.50;;;;;;;;;;5049542;28;20484;-62
2024/01/12 09:32:15;;;;;;;21.17;6.87;;;;;;;;;;5049883;28;20405;-63
2024/01/12 09:34:41;;;;;;;15.52;5.65;;;;;;;;;;5050329;28;20401;-62
2024/01/12 09:37:06;;;;;;;45.72;25.00;;;;;;;;;;5049382;28;20412;-63
2024/01/12 09:39:31;;;;;;;16.43;7.23;;;;;;;;;;5050315;28;20404;-63
2024/01/12 09:41:59;;;;;;;28.57;17.23;;;;;;;;;;5050394;28;20498;-63
2024/01/12 09:44:24;;;;;;;14.17;6.20;;;;;;;;;;5048896;28;20433;-63
2024/01/12 09:46:52;;;;;;;15.88;5.72;;;;;;;;;;5032323;28;20405;-63
2024/01/12 09:49:18;;;;;;;14.60;5.20;;;;;;;;;;5048815;28;20401;-62
2024/01/12 09:51:43;;;;;;;12.63;5.17;;;;;;;;;;5053263;28;20412;-62
2024/01/12 09:54:08;;;;;;;14.68;6.38;;;;;;;;;;5035756;28;20738;-63
2024/01/12 09:56:34;;;;;;;14.73;6.10;;;;;;;;;;5053127;28;20417;-63
2024/01/12 09:58:59;;;;;;;12.87;5.30;;;;;;;;;;5035971;28;20410;-62
2024/01/12 10:01:24;;;;;;;13.03;5.00;;;;;;;;;;5053100;28;20760;-63
2024/01/12 10:03:49;;;;;;;12.77;5.43;;;;;;;;;;5034899;28;20433;-62
2024/01/12 10:06:15;;;;;;;12.30;5.28;;;;;;;;;;5053187;28;20486;-62
2024/01/12 10:08:40;;;;;;;14.50;5.30;;;;;;;;;;5053406;28;20915;-62
2024/01/12 10:11:05;;;;;;;14.43;5.47;;;;;;;;;;5052277;28;20469;-63
2024/01/12 10:13:31;;;;;;;22.47;16.87;;;;;;;;;;5053758;28;20877;-62
2024/01/12 10:15:56;;;;;;;23.95;19.52;;;;;;;;;;5053205;28;20500;-62
2024/01/12 10:18:22;;;;;;;30.43;26.87;;;;;;;;;;5051798;28;20717;-62
2024/01/12 10:20:48;;;;;;;18.50;10.23;;;;;;;;;;5053294;28;20406;-62
2024/01/12 10:23:18;;;;;;;14.20;6.30;;;;;;;;;;5034914;28;20467;-62
2024/01/12 10:25:43;;;;;;;17.05;9.27;;;;;;;;;;5052466;28;20476;-62
2024/01/12 10:28:16;;;;;;;13.93;5.37;;;;;;;;;;5052803;28;20484;-63
2024/01/12 10:30:42;;;;;;;14.10;7.20;;;;;;;;;;5053093;28;20449;-62
2024/01/12 10:33:07;;;;;;;14.20;5.93;;;;;;;;;;5051609;28;20394;-62
2024/01/12 10:35:33;;;;;;;20.40;14.60;;;;;;;;;;5053035;28;20393;-62
2024/01/12 10:37:59;;;;;;;14.80;8.00;;;;;;;;;;5052924;28;20412;-62
2024/01/12 10:40:24;;;;;;;11.90;5.30;;;;;;;;;;5034195;28;20465;-63
2024/01/12 10:42:50;;;;;;;16.27;8.30;;;;;;;;;;5053031;28;20425;-63
2024/01/12 10:45:21;;;;;;;17.63;13.73;;;;;;;;;;5034767;28;20398;-63
2024/01/12 10:47:48;;;;;;;27.08;24.27;;;;;;;;;;5052094;28;20382;-62
2024/01/12 10:50:14;;;;;;;28.45;23.48;;;;;;;;;;5034421;28;20765;-63
2024/01/12 10:52:42;;;;;;;16.67;7.37;;;;;;;;;;5034121;28;20405;-62
2024/01/12 10:55:10;;;;;;;16.35;6.43;;;;;;;;;;5052267;28;20393;-63
2024/01/12 10:57:35;;;;;;;27.17;21.88;;;;;;;;;;5052594;28;20472;-63
2024/01/12 11:00:00;;;;;;;17.15;8.23;;;;;;;;;;5051655;28;20481;-62
2024/01/12 11:02:26;;;;;;;15.97;5.60;;;;;;;;;;5033562;28;20483;-63
2024/01/12 11:04:52;;;;;;;37.40;32.77;;;;;;;;;;5052228;28;20417;-63
2024/01/12 11:07:17;;;;;;;18.00;8.88;;;;;;;;;;5050986;28;20632;-62
2024/01/12 11:09:42;;;;;;;17.37;10.60;;;;;;;;;;5052575;28;20428;-63
2024/01/12 11:12:08;;;;;;;24.10;17.20;;;;;;;;;;5051840;28;20907;-63
2024/01/12 11:14:33;;;;;;;19.77;11.45;;;;;;;;;;5051770;28;20428;-63
2024/01/12 11:16:58;;;;;;;18.03;8.40;;;;;;;;;;5052095;28;20412;-63
2024/01/12 11:19:25;;;;;;;24.93;19.43;;;;;;;;;;5033657;28;20777;-63
2024/01/12 11:22:01;;;;;;;14.75;7.85;;;;;;;;;;5051085;28;20420;-63
2024/01/12 11:24:26;;;;;;;13.82;5.55;;;;;;;;;;5045897;28;20393;-63
2024/01/12 11:26:51;;;;;;;35.10;29.93;;;;;;;;;;5052139;28;20408;-63
2024/01/12 11:29:19;;;;;;;22.80;17.57;;;;;;;;;;5063041;28;20391;-63
2024/01/12 11:31:48;;;;;;;15.98;6.43;;;;;;;;;;5054236;28;20407;-63
2024/01/12 11:34:15;;;;;;;19.08;12.10;;;;;;;;;;5054166;28;20397;-63
2024/01/12 11:36:41;;;;;;;44.72;39.97;;;;;;;;;;5033414;28;20952;-63
2024/01/12 11:39:10;;;;;;;33.87;26.60;;;;;;;;;;5050692;28;20481;-63
2024/01/12 11:41:35;;;;;;;33.20;26.48;;;;;;;;;;5050575;28;20390;-63
2024/01/12 11:44:01;;;;;;;40.93;36.53;;;;;;;;;;5050608;28;20424;-63
2024/01/12 11:46:26;;;;;;;21.83;14.40;;;;;;;;;;5051449;28;20745;-62
2024/01/12 11:48:52;;;;;;;53.93;45.93;;;;;;;;;;5050573;28;20389;-62
2024/01/12 11:51:21;;;;;;;34.60;27.90;;;;;;;;;;5051298;28;20432;-62
2024/01/12 11:53:48;;;;;;;33.83;28.05;;;;;;;;;;5050940;28;20401;-62
2024/01/12 11:56:14;;;;;;;73.17;65.20;;;;;;;;;;5055250;28;20464;-62
2024/01/12 11:58:39;;;;;;;20.92;14.13;;;;;;;;;;5071326;28;20926;-61
2024/01/12 12:01:06;;;;;;;112.63;71.87;;;;;;;;;;5064780;28;20401;-62
2024/01/12 12:03:31;;;;;;;28.27;17.35;;;;;;;;;;5050407;28;20402;-61
2024/01/12 12:05:56;;;;;;;12.33;5.37;;;;;;;;;;5051299;28;20428;-62
2024/01/12 12:08:22;;;;;;;12.70;4.90;;;;;;;;;;5050294;28;20378;-61
2024/01/12 12:10:47;;;;;;;14.17;4.83;;;;;;;;;;5050505;28;20412;-62
2024/01/12 12:13:13;;;;;;;12.80;5.00;;;;;;;;;;5050194;28;20897;-62
2024/01/12 12:15:38;;;;;;;18.47;5.87;;;;;;;;;;5033000;28;20923;-63
2024/01/12 12:18:04;;;;;;;12.77;4.77;;;;;;;;;;5049824;28;20919;-64
2024/01/12 12:20:29;;;;;;;14.37;4.93;;;;;;;;;;5050658;28;20401;-64
2024/01/12 12:22:56;;;;;;;16.80;5.03;;;;;;;;;;5032939;28;20401;-65
2024/01/12 12:25:21;;;;;;;13.27;4.85;;;;;;;;;;5032465;28;20849;-65
2024/01/12 12:27:47;;;;;;;14.10;4.63;;;;;;;;;;5050927;28;20409;-62
2024/01/12 12:30:12;;;;;;;12.75;4.55;;;;;;;;;;5049419;28;20435;-64
2024/01/12 12:32:38;;;;;;;12.67;4.20;;;;;;;;;;5050177;28;20455;-64
2024/01/12 12:35:11;;;;;;;15.48;6.38;;;;;;;;;;5050653;28;20915;-64
2024/01/12 12:37:36;;;;;;;21.63;10.05;;;;;;;;;;5050877;28;20728;-62
2024/01/12 12:40:03;;;;;;;15.73;6.43;;;;;;;;;;5049910;28;20401;-63
2024/01/12 12:42:28;;;;;;;18.45;9.13;;;;;;;;;;5051035;28;20389;-63
2024/01/12 12:44:54;;;;;;;14.43;5.50;;;;;;;;;;5051051;28;20403;-63
2024/01/12 12:47:20;;;;;;;16.60;6.80;;;;;;;;;;5049566;28;21440;-63
2024/01/12 12:49:46;;;;;;;14.65;4.90;;;;;;;;;;5033464;28;20403;-62
2024/01/12 12:52:11;;;;;;;13.33;4.33;;;;;;;;;;5031264;28;20795;-63
2024/01/12 12:54:37;;;;;;;12.37;4.37;;;;;;;;;;5050700;28;20415;-63
2024/01/12 12:57:02;;;;;;;13.45;4.40;;;;;;;;;;5050093;28;20965;-63
2024/01/12 12:59:32;;;;;;;13.77;4.10;;;;;;;;;;5049966;28;20416;-63
2024/01/12 13:01:58;;;;;;;10.45;3.70;;;;;;;;;;5052681;28;20421;-63
2024/01/12 13:04:25;;;;;;;12.57;4.05;;;;;;;;;;5049982;28;20388;-62
2024/01/12 13:06:50;;;;;;;13.60;4.30;;;;;;;;;;5049796;28;20535;-63
2024/01/12 13:09:15;;;;;;;16.92;4.50;;;;;;;;;;5032191;28;21040;-64
2024/01/12 13:11:41;;;;;;;13.07;4.17;;;;;;;;;;5050908;28;20397;-63
2024/01/12 13:14:07;;;;;;;14.70;4.47;;;;;;;;;;5049190;28;20406;-66
2024/01/12 13:16:33;;;;;;;14.18;4.57;;;;;;;;;;5032669;28;20399;-66
2024/01/12 13:18:58;;;;;;;12.77;3.87;;;;;;;;;;5049565;28;20781;-66
2024/01/12 13:21:23;;;;;;;12.43;3.53;;;;;;;;;;5047183;28;20465;-62
2024/01/12 13:23:50;;;;;;;11.00;3.97;;;;;;;;;;5050377;28;20385;-63
2024/01/12 13:26:15;;;;;;;12.52;3.42;;;;;;;;;;5052677;28;20405;-62
2024/01/12 13:28:40;;;;;;;11.43;4.07;;;;;;;;;;5053479;28;20455;-62
2024/01/12 13:31:06;;;;;;;13.23;4.07;;;;;;;;;;5053595;28;20406;-62
2024/01/12 13:33:32;;;;;;;13.00;3.83;;;;;;;;;;5036359;28;20488;-62
2024/01/12 13:35:58;;;;;;;12.65;3.70;;;;;;;;;;5052472;28;20405;-62
2024/01/12 13:38:23;;;;;;;13.60;3.80;;;;;;;;;;5052852;28;20465;-62
2024/01/12 13:40:48;;;;;;;13.73;3.90;;;;;;;;;;5053473;28;20449;-62
2024/01/12 13:43:14;;;;;;;13.20;3.93;;;;;;;;;;5052931;28;20433;-62
2024/01/12 13:45:39;;;;;;;13.73;4.20;;;;;;;;;;5054196;28;20965;-62
2024/01/12 13:48:07;;;;;;;14.47;4.20;;;;;;;;;;5053875;28;20397;-62
2024/01/12 13:50:32;;;;;;;15.30;4.20;;;;;;;;;;5053028;28;20439;-61
2024/01/12 13:53:01;;;;;;;15.40;4.70;;;;;;;;;;5053578;28;20394;-61
2024/01/12 13:55:26;;;;;;;14.63;5.20;;;;;;;;;;5052300;28;20475;-61
2024/01/12 13:57:52;;;;;;;26.92;11.48;;;;;;;;;;5053818;28;20885;-61
2024/01/12 14:00:17;;;;;;;85.43;39.27;;;;;;;;;;5053196;28;20418;-61
2024/01/12 14:02:43;;;;;;;18.40;7.15;;;;;;;;;;5035993;28;20737;-61
2024/01/12 14:05:10;;;;;;;47.53;21.43;;;;;;;;;;5053067;28;20386;-61
2024/01/12 14:07:35;;;;;;;26.60;11.63;;;;;;;;;;5053313;28;20457;-61
2024/01/12 14:10:00;;;;;;;15.90;5.70;;;;;;;;;;5052393;28;20568;-62
2024/01/12 14:12:27;;;;;;;18.83;9.63;;;;;;;;;;5053627;28;20885;-62
2024/01/12 14:14:52;;;;;;;14.30;3.95;;;;;;;;;;5053689;28;20400;-61
2024/01/12 14:17:18;;;;;;;13.47;4.37;;;;;;;;;;5034264;28;20481;-62